sensor_id;sensor_type;location;lat;lon;timestamp;P1;durP1;ratioP1;P2;durP2;ratioP2
20012;SDS011;10167;42.852;23.042;2022-07-18T00:01:48;2.40;;;1.10;;
20012;SDS011;10167;42.852;23.042;2022-07-18T00:04:16;1.25;;;1.05;;
20012;SDS011;10167;42.852;23.042;2022-07-18T00:06:43;2.10;;;1.20;;
20012;SDS011;10167;42.852;23.042;2022-07-18T00:09:11;3.45;;;1.00;;
20012;SDS011;10167;42.852;23.042;2022-07-18T00:11:38;1.35;;;1.08;;
20012;SDS011;10167;42.852;23.042;2022-07-18T00:14:06;1.98;;;1.30;;
20012;SDS011;10167;42.852;23.042;2022-07-18T00:16:33;1.27;;;1.05;;
20012;SDS011;10167;42.852;23.042;2022-07-18T00:24:00;2.17;;;1.20;;
20012;SDS011;10167;42.852;23.042;2022-07-18T00:26:27;1.40;;;1.15;;
20012;SDS011;10167;42.852;23.042;2022-07-18T00:28:56;1.90;;;1.10;;
20012;SDS011;10167;42.852;23.042;2022-07-18T00:31:23;1.77;;;0.82;;
20012;SDS011;10167;42.852;23.042;2022-07-18T00:33:51;2.47;;;1.02;;
20012;SDS011;10167;42.852;23.042;2022-07-18T00:36:18;1.08;;;0.98;;
20012;SDS011;10167;42.852;23.042;2022-07-18T00:38:46;1.60;;;0.93;;
20012;SDS011;10167;42.852;23.042;2022-07-18T00:46:18;1.83;;;1.20;;
20012;SDS011;10167;42.852;23.042;2022-07-18T00:48:47;0.98;;;0.82;;
20012;SDS011;10167;42.852;23.042;2022-07-18T00:51:15;1.42;;;0.82;;
20012;SDS011;10167;42.852;23.042;2022-07-18T00:53:43;1.42;;;0.98;;
20012;SDS011;10167;42.852;23.042;2022-07-18T00:56:11;8.45;;;0.93;;
20012;SDS011;10167;42.852;23.042;2022-07-18T00:58:40;1.05;;;0.98;;
20012;SDS011;10167;42.852;23.042;2022-07-18T01:01:09;3.53;;;0.75;;
20012;SDS011;10167;42.852;23.042;2022-07-18T01:08:59;0.90;;;0.90;;
20012;SDS011;10167;42.852;23.042;2022-07-18T01:11:26;1.38;;;0.82;;
20012;SDS011;10167;42.852;23.042;2022-07-18T01:13:54;1.33;;;0.98;;
20012;SDS011;10167;42.852;23.042;2022-07-18T01:16:22;0.82;;;0.82;;
20012;SDS011;10167;42.852;23.042;2022-07-18T01:18:50;1.02;;;0.70;;
20012;SDS011;10167;42.852;23.042;2022-07-18T01:21:18;0.77;;;0.77;;
20012;SDS011;10167;42.852;23.042;2022-07-18T01:23:46;0.70;;;0.70;;
20012;SDS011;10167;42.852;23.042;2022-07-18T01:31:17;1.33;;;0.65;;
20012;SDS011;10167;42.852;23.042;2022-07-18T01:33:45;1.35;;;0.80;;
20012;SDS011;10167;42.852;23.042;2022-07-18T01:36:12;1.05;;;0.63;;
20012;SDS011;10167;42.852;23.042;2022-07-18T01:38:40;0.75;;;0.60;;
20012;SDS011;10167;42.852;23.042;2022-07-18T01:41:07;2.53;;;1.30;;
20012;SDS011;10167;42.852;23.042;2022-07-18T01:43:38;0.95;;;0.70;;
20012;SDS011;10167;42.852;23.042;2022-07-18T01:46:08;0.85;;;0.85;;
20012;SDS011;10167;42.852;23.042;2022-07-18T01:53:35;1.70;;;1.00;;
20012;SDS011;10167;42.852;23.042;2022-07-18T01:56:03;1.13;;;0.90;;
20012;SDS011;10167;42.852;23.042;2022-07-18T01:58:31;0.68;;;0.68;;
20012;SDS011;10167;42.852;23.042;2022-07-18T02:00:58;1.30;;;0.80;;
20012;SDS011;10167;42.852;23.042;2022-07-18T02:03:26;1.05;;;0.70;;
20012;SDS011;10167;42.852;23.042;2022-07-18T02:05:53;1.67;;;0.95;;
20012;SDS011;10167;42.852;23.042;2022-07-18T02:08:21;2.00;;;0.70;;
20012;SDS011;10167;42.852;23.042;2022-07-18T02:15:36;4.78;;;0.70;;
20012;SDS011;10167;42.852;23.042;2022-07-18T02:18:04;0.68;;;0.68;;
20012;SDS011;10167;42.852;23.042;2022-07-18T02:20:31;0.73;;;0.52;;
20012;SDS011;10167;42.852;23.042;2022-07-18T02:22:59;0.82;;;0.70;;
20012;SDS011;10167;42.852;23.042;2022-07-18T02:25:26;1.40;;;0.85;;
20012;SDS011;10167;42.852;23.042;2022-07-18T02:27:54;0.50;;;0.50;;
20012;SDS011;10167;42.852;23.042;2022-07-18T02:30:22;0.73;;;0.40;;
20012;SDS011;10167;42.852;23.042;2022-07-18T02:37:53;1.83;;;0.90;;
20012;SDS011;10167;42.852;23.042;2022-07-18T02:40:21;1.85;;;0.85;;
20012;SDS011;10167;42.852;23.042;2022-07-18T02:42:49;0.70;;;0.70;;
20012;SDS011;10167;42.852;23.042;2022-07-18T02:45:16;3.45;;;0.95;;
20012;SDS011;10167;42.852;23.042;2022-07-18T02:47:44;0.40;;;0.40;;
20012;SDS011;10167;42.852;23.042;2022-07-18T02:50:12;0.70;;;0.68;;
20012;SDS011;10167;42.852;23.042;2022-07-18T02:52:39;0.90;;;0.70;;
20012;SDS011;10167;42.852;23.042;2022-07-18T03:00:12;0.80;;;0.50;;
20012;SDS011;10167;42.852;23.042;2022-07-18T03:02:41;1.17;;;0.93;;
20012;SDS011;10167;42.852;23.042;2022-07-18T03:05:09;0.82;;;0.75;;
20012;SDS011;10167;42.852;23.042;2022-07-18T03:07:37;0.68;;;0.68;;
20012;SDS011;10167;42.852;23.042;2022-07-18T03:10:06;1.48;;;0.82;;
20012;SDS011;10167;42.852;23.042;2022-07-18T03:12:34;2.83;;;1.08;;
20012;SDS011;10167;42.852;23.042;2022-07-18T03:15:02;0.60;;;0.60;;
20012;SDS011;10167;42.852;23.042;2022-07-18T03:22:29;2.70;;;1.02;;
20012;SDS011;10167;42.852;23.042;2022-07-18T03:24:59;1.48;;;0.95;;
20012;SDS011;10167;42.852;23.042;2022-07-18T03:27:27;1.08;;;0.63;;
20012;SDS011;10167;42.852;23.042;2022-07-18T03:29:54;0.85;;;0.55;;
20012;SDS011;10167;42.852;23.042;2022-07-18T03:32:22;0.80;;;0.60;;
20012;SDS011;10167;42.852;23.042;2022-07-18T03:34:49;1.02;;;0.50;;
20012;SDS011;10167;42.852;23.042;2022-07-18T03:37:17;2.35;;;0.70;;
20012;SDS011;10167;42.852;23.042;2022-07-18T03:44:41;0.77;;;0.70;;
20012;SDS011;10167;42.852;23.042;2022-07-18T03:47:09;0.85;;;0.50;;
20012;SDS011;10167;42.852;23.042;2022-07-18T03:49:36;1.77;;;0.52;;
20012;SDS011;10167;42.852;23.042;2022-07-18T03:52:04;5.60;;;0.60;;
20012;SDS011;10167;42.852;23.042;2022-07-18T03:54:32;1.02;;;0.70;;
20012;SDS011;10167;42.852;23.042;2022-07-18T03:56:59;1.05;;;0.57;;
20012;SDS011;10167;42.852;23.042;2022-07-18T03:59:27;0.52;;;0.52;;
20012;SDS011;10167;42.852;23.042;2022-07-18T04:06:58;2.10;;;0.63;;
20012;SDS011;10167;42.852;23.042;2022-07-18T04:09:26;0.75;;;0.60;;
20012;SDS011;10167;42.852;23.042;2022-07-18T04:11:54;1.13;;;0.82;;
20012;SDS011;10167;42.852;23.042;2022-07-18T04:14:22;1.20;;;0.85;;
20012;SDS011;10167;42.852;23.042;2022-07-18T04:16:50;1.05;;;0.73;;
20012;SDS011;10167;42.852;23.042;2022-07-18T04:19:17;5.90;;;1.48;;
20012;SDS011;10167;42.852;23.042;2022-07-18T04:21:45;0.70;;;0.60;;
20012;SDS011;10167;42.852;23.042;2022-07-18T04:29:16;1.02;;;0.57;;
20012;SDS011;10167;42.852;23.042;2022-07-18T04:31:43;1.23;;;0.80;;
20012;SDS011;10167;42.852;23.042;2022-07-18T04:34:11;0.95;;;0.68;;
20012;SDS011;10167;42.852;23.042;2022-07-18T04:36:39;0.65;;;0.63;;
20012;SDS011;10167;42.852;23.042;2022-07-18T04:39:06;0.65;;;0.47;;
20012;SDS011;10167;42.852;23.042;2022-07-18T04:41:34;0.30;;;0.30;;
20012;SDS011;10167;42.852;23.042;2022-07-18T04:44:02;0.93;;;0.50;;
20012;SDS011;10167;42.852;23.042;2022-07-18T04:50:49;1.83;;;0.60;;
20012;SDS011;10167;42.852;23.042;2022-07-18T04:53:16;1.23;;;0.80;;
20012;SDS011;10167;42.852;23.042;2022-07-18T04:55:44;1.70;;;0.73;;
20012;SDS011;10167;42.852;23.042;2022-07-18T04:58:11;1.38;;;0.80;;
20012;SDS011;10167;42.852;23.042;2022-07-18T05:00:39;2.00;;;1.10;;
20012;SDS011;10167;42.852;23.042;2022-07-18T05:03:06;0.65;;;0.65;;
20012;SDS011;10167;42.852;23.042;2022-07-18T05:05:34;0.55;;;0.55;;
20012;SDS011;10167;42.852;23.042;2022-07-18T05:13:06;1.05;;;0.60;;
20012;SDS011;10167;42.852;23.042;2022-07-18T05:15:33;1.38;;;0.75;;
20012;SDS011;10167;42.852;23.042;2022-07-18T05:18:01;1.67;;;0.63;;
20012;SDS011;10167;42.852;23.042;2022-07-18T05:20:29;1.17;;;0.77;;
20012;SDS011;10167;42.852;23.042;2022-07-18T05:22:56;0.65;;;0.60;;
20012;SDS011;10167;42.852;23.042;2022-07-18T05:25:24;0.90;;;0.50;;
20012;SDS011;10167;42.852;23.042;2022-07-18T05:27:52;0.80;;;0.80;;
20012;SDS011;10167;42.852;23.042;2022-07-18T05:35:18;0.77;;;0.55;;
20012;SDS011;10167;42.852;23.042;2022-07-18T05:37:45;1.35;;;0.80;;
20012;SDS011;10167;42.852;23.042;2022-07-18T05:40:13;1.92;;;0.93;;
20012;SDS011;10167;42.852;23.042;2022-07-18T05:42:41;4.82;;;0.70;;
20012;SDS011;10167;42.852;23.042;2022-07-18T05:45:20;6.15;;;1.60;;
20012;SDS011;10167;42.852;23.042;2022-07-18T05:47:48;3.10;;;0.77;;
20012;SDS011;10167;42.852;23.042;2022-07-18T05:50:15;0.95;;;0.80;;
20012;SDS011;10167;42.852;23.042;2022-07-18T05:57:44;1.48;;;0.85;;
20012;SDS011;10167;42.852;23.042;2022-07-18T06:00:12;0.93;;;0.55;;
20012;SDS011;10167;42.852;23.042;2022-07-18T06:02:40;4.53;;;0.80;;
20012;SDS011;10167;42.852;23.042;2022-07-18T06:05:09;4.30;;;0.82;;
20012;SDS011;10167;42.852;23.042;2022-07-18T06:07:54;0.73;;;0.50;;
20012;SDS011;10167;42.852;23.042;2022-07-18T06:10:23;7.93;;;0.93;;
20012;SDS011;10167;42.852;23.042;2022-07-18T06:12:52;1.02;;;0.50;;
20012;SDS011;10167;42.852;23.042;2022-07-18T06:20:19;3.17;;;0.70;;
20012;SDS011;10167;42.852;23.042;2022-07-18T06:22:47;1.20;;;0.77;;
20012;SDS011;10167;42.852;23.042;2022-07-18T06:25:14;0.63;;;0.60;;
20012;SDS011;10167;42.852;23.042;2022-07-18T06:27:42;1.67;;;0.70;;
20012;SDS011;10167;42.852;23.042;2022-07-18T06:30:11;1.48;;;0.50;;
20012;SDS011;10167;42.852;23.042;2022-07-18T06:32:39;1.33;;;0.70;;
20012;SDS011;10167;42.852;23.042;2022-07-18T06:35:07;2.15;;;0.80;;
20012;SDS011;10167;42.852;23.042;2022-07-18T06:42:21;2.15;;;0.80;;
20012;SDS011;10167;42.852;23.042;2022-07-18T06:44:49;1.27;;;0.90;;
20012;SDS011;10167;42.852;23.042;2022-07-18T06:47:16;2.65;;;0.60;;
20012;SDS011;10167;42.852;23.042;2022-07-18T06:49:44;1.73;;;0.60;;
20012;SDS011;10167;42.852;23.042;2022-07-18T06:52:12;3.10;;;0.73;;
20012;SDS011;10167;42.852;23.042;2022-07-18T06:54:42;0.75;;;0.65;;
20012;SDS011;10167;42.852;23.042;2022-07-18T06:57:09;0.57;;;0.57;;
20012;SDS011;10167;42.852;23.042;2022-07-18T07:04:41;1.67;;;0.80;;
20012;SDS011;10167;42.852;23.042;2022-07-18T07:07:09;0.80;;;0.80;;
20012;SDS011;10167;42.852;23.042;2022-07-18T07:09:37;0.80;;;0.68;;
20012;SDS011;10167;42.852;23.042;2022-07-18T07:12:04;1.67;;;0.70;;
20012;SDS011;10167;42.852;23.042;2022-07-18T07:14:32;0.80;;;0.57;;
20012;SDS011;10167;42.852;23.042;2022-07-18T07:16:59;0.50;;;0.50;;
20012;SDS011;10167;42.852;23.042;2022-07-18T07:19:27;1.08;;;0.50;;
20012;SDS011;10167;42.852;23.042;2022-07-18T07:26:59;0.82;;;0.57;;
20012;SDS011;10167;42.852;23.042;2022-07-18T07:29:27;1.73;;;0.50;;
20012;SDS011;10167;42.852;23.042;2022-07-18T07:31:54;1.23;;;0.68;;
20012;SDS011;10167;42.852;23.042;2022-07-18T07:34:22;1.15;;;0.60;;
20012;SDS011;10167;42.852;23.042;2022-07-18T07:36:49;0.93;;;0.65;;
20012;SDS011;10167;42.852;23.042;2022-07-18T07:39:17;0.85;;;0.47;;
20012;SDS011;10167;42.852;23.042;2022-07-18T07:41:45;1.48;;;0.65;;
20012;SDS011;10167;42.852;23.042;2022-07-18T07:49:01;7.97;;;1.02;;
20012;SDS011;10167;42.852;23.042;2022-07-18T07:51:29;5.32;;;0.98;;
20012;SDS011;10167;42.852;23.042;2022-07-18T07:54:01;0.93;;;0.60;;
20012;SDS011;10167;42.852;23.042;2022-07-18T07:56:29;3.67;;;0.70;;
20012;SDS011;10167;42.852;23.042;2022-07-18T07:58:57;0.85;;;0.57;;
20012;SDS011;10167;42.852;23.042;2022-07-18T08:01:24;0.90;;;0.70;;
20012;SDS011;10167;42.852;23.042;2022-07-18T08:03:52;0.82;;;0.80;;
20012;SDS011;10167;42.852;23.042;2022-07-18T08:11:23;0.93;;;0.50;;
20012;SDS011;10167;42.852;23.042;2022-07-18T08:13:50;1.58;;;0.80;;
20012;SDS011;10167;42.852;23.042;2022-07-18T08:16:18;1.52;;;0.45;;
20012;SDS011;10167;42.852;23.042;2022-07-18T08:18:46;3.50;;;0.70;;
20012;SDS011;10167;42.852;23.042;2022-07-18T08:21:14;2.38;;;0.40;;
20012;SDS011;10167;42.852;23.042;2022-07-18T08:23:41;2.25;;;0.60;;
20012;SDS011;10167;42.852;23.042;2022-07-18T08:26:11;0.63;;;0.50;;
20012;SDS011;10167;42.852;23.042;2022-07-18T08:33:35;0.82;;;0.50;;
20012;SDS011;10167;42.852;23.042;2022-07-18T08:36:03;0.68;;;0.63;;
20012;SDS011;10167;42.852;23.042;2022-07-18T08:38:31;2.83;;;0.80;;
20012;SDS011;10167;42.852;23.042;2022-07-18T08:40:58;0.68;;;0.68;;
20012;SDS011;10167;42.852;23.042;2022-07-18T08:43:28;3.85;;;1.15;;
20012;SDS011;10167;42.852;23.042;2022-07-18T08:45:56;0.50;;;0.50;;
20012;SDS011;10167;42.852;23.042;2022-07-18T08:48:30;0.80;;;0.80;;
20012;SDS011;10167;42.852;23.042;2022-07-18T08:55:08;0.88;;;0.60;;
20012;SDS011;10167;42.852;23.042;2022-07-18T08:57:50;1.33;;;0.52;;
20012;SDS011;10167;42.852;23.042;2022-07-18T09:00:19;0.55;;;0.50;;
20012;SDS011;10167;42.852;23.042;2022-07-18T09:02:55;2.63;;;0.40;;
20012;SDS011;10167;42.852;23.042;2022-07-18T09:05:27;0.93;;;0.55;;
20012;SDS011;10167;42.852;23.042;2022-07-18T09:08:12;0.63;;;0.45;;
20012;SDS011;10167;42.852;23.042;2022-07-18T09:13:49;1.85;;;0.90;;
20012;SDS011;10167;42.852;23.042;2022-07-18T09:16:16;0.88;;;0.50;;
20012;SDS011;10167;42.852;23.042;2022-07-18T09:18:45;1.48;;;0.45;;
20012;SDS011;10167;42.852;23.042;2022-07-18T09:21:15;1.35;;;0.60;;
20012;SDS011;10167;42.852;23.042;2022-07-18T09:23:44;1.92;;;0.80;;
20012;SDS011;10167;42.852;23.042;2022-07-18T09:26:34;0.68;;;0.50;;
20012;SDS011;10167;42.852;23.042;2022-07-18T09:29:06;0.60;;;0.50;;
20012;SDS011;10167;42.852;23.042;2022-07-18T09:33:06;2.35;;;0.60;;
20012;SDS011;10167;42.852;23.042;2022-07-18T09:35:36;0.60;;;0.60;;
20012;SDS011;10167;42.852;23.042;2022-07-18T09:38:09;1.73;;;0.77;;
20012;SDS011;10167;42.852;23.042;2022-07-18T09:40:38;0.55;;;0.45;;
20012;SDS011;10167;42.852;23.042;2022-07-18T09:43:07;0.90;;;0.57;;
20012;SDS011;10167;42.852;23.042;2022-07-18T09:45:37;0.60;;;0.60;;
20012;SDS011;10167;42.852;23.042;2022-07-18T09:48:07;0.50;;;0.50;;
20012;SDS011;10167;42.852;23.042;2022-07-18T09:55:44;0.95;;;0.60;;
20012;SDS011;10167;42.852;23.042;2022-07-18T09:58:15;1.75;;;0.75;;
20012;SDS011;10167;42.852;23.042;2022-07-18T10:00:45;1.85;;;0.63;;
20012;SDS011;10167;42.852;23.042;2022-07-18T10:03:13;0.63;;;0.60;;
20012;SDS011;10167;42.852;23.042;2022-07-18T10:05:41;1.05;;;0.60;;
20012;SDS011;10167;42.852;23.042;2022-07-18T10:08:11;0.73;;;0.50;;
20012;SDS011;10167;42.852;23.042;2022-07-18T10:10:42;3.15;;;0.80;;
20012;SDS011;10167;42.852;23.042;2022-07-18T10:14:21;3.13;;;0.93;;
20012;SDS011;10167;42.852;23.042;2022-07-18T10:16:49;1.05;;;0.70;;
20012;SDS011;10167;42.852;23.042;2022-07-18T10:19:17;0.77;;;0.70;;
20012;SDS011;10167;42.852;23.042;2022-07-18T10:21:45;0.60;;;0.60;;
20012;SDS011;10167;42.852;23.042;2022-07-18T10:24:15;2.65;;;0.70;;
20012;SDS011;10167;42.852;23.042;2022-07-18T10:26:43;1.35;;;0.70;;
20012;SDS011;10167;42.852;23.042;2022-07-18T10:29:17;1.30;;;0.60;;
20012;SDS011;10167;42.852;23.042;2022-07-18T10:37:08;0.70;;;0.70;;
20012;SDS011;10167;42.852;23.042;2022-07-18T10:39:37;1.00;;;0.90;;
20012;SDS011;10167;42.852;23.042;2022-07-18T10:42:13;1.00;;;0.80;;
20012;SDS011;10167;42.852;23.042;2022-07-18T10:44:42;1.17;;;1.00;;
20012;SDS011;10167;42.852;23.042;2022-07-18T10:47:10;0.75;;;0.55;;
20012;SDS011;10167;42.852;23.042;2022-07-18T10:58:16;0.70;;;0.63;;
20012;SDS011;10167;42.852;23.042;2022-07-18T11:00:46;0.80;;;0.80;;
20012;SDS011;10167;42.852;23.042;2022-07-18T11:03:18;0.70;;;0.70;;
20012;SDS011;10167;42.852;23.042;2022-07-18T11:05:58;5.07;;;1.02;;
20012;SDS011;10167;42.852;23.042;2022-07-18T11:08:26;2.50;;;1.17;;
20012;SDS011;10167;42.852;23.042;2022-07-18T11:11:04;3.97;;;0.90;;
20012;SDS011;10167;42.852;23.042;2022-07-18T11:21:45;1.25;;;1.10;;
20012;SDS011;10167;42.852;23.042;2022-07-18T11:24:13;1.02;;;0.80;;
20012;SDS011;10167;42.852;23.042;2022-07-18T11:26:45;1.20;;;0.90;;
20012;SDS011;10167;42.852;23.042;2022-07-18T11:29:15;0.80;;;0.80;;
20012;SDS011;10167;42.852;23.042;2022-07-18T11:31:44;1.20;;;1.05;;
20012;SDS011;10167;42.852;23.042;2022-07-18T11:36:57;3.50;;;1.55;;
20012;SDS011;10167;42.852;23.042;2022-07-18T11:39:29;3.40;;;1.08;;
20012;SDS011;10167;42.852;23.042;2022-07-18T11:41:58;8.90;;;4.85;;
20012;SDS011;10167;42.852;23.042;2022-07-18T11:44:26;2.42;;;1.67;;
20012;SDS011;10167;42.852;23.042;2022-07-18T11:47:00;5.22;;;1.75;;
20012;SDS011;10167;42.852;23.042;2022-07-18T11:49:29;1.23;;;1.05;;
20012;SDS011;10167;42.852;23.042;2022-07-18T11:51:57;1.38;;;1.08;;
20012;SDS011;10167;42.852;23.042;2022-07-18T11:59:26;4.38;;;1.30;;
20012;SDS011;10167;42.852;23.042;2022-07-18T12:02:02;1.15;;;1.00;;
20012;SDS011;10167;42.852;23.042;2022-07-18T12:04:30;1.33;;;0.80;;
20012;SDS011;10167;42.852;23.042;2022-07-18T12:07:14;1.45;;;1.20;;
20012;SDS011;10167;42.852;23.042;2022-07-18T12:09:43;2.78;;;1.13;;
20012;SDS011;10167;42.852;23.042;2022-07-18T12:12:11;1.30;;;1.20;;
20012;SDS011;10167;42.852;23.042;2022-07-18T12:18:04;1.95;;;1.10;;
20012;SDS011;10167;42.852;23.042;2022-07-18T12:20:32;1.73;;;1.25;;
20012;SDS011;10167;42.852;23.042;2022-07-18T12:23:04;1.23;;;1.10;;
20012;SDS011;10167;42.852;23.042;2022-07-18T12:25:35;3.72;;;1.00;;
20012;SDS011;10167;42.852;23.042;2022-07-18T12:28:11;1.35;;;1.20;;
20012;SDS011;10167;42.852;23.042;2022-07-18T12:30:40;2.13;;;1.13;;
20012;SDS011;10167;42.852;23.042;2022-07-18T12:33:08;2.10;;;1.10;;
20012;SDS011;10167;42.852;23.042;2022-07-18T12:40:41;2.10;;;1.30;;
20012;SDS011;10167;42.852;23.042;2022-07-18T12:43:11;1.27;;;1.17;;
20012;SDS011;10167;42.852;23.042;2022-07-18T12:45:40;3.13;;;1.30;;
20012;SDS011;10167;42.852;23.042;2022-07-18T12:48:09;3.42;;;1.30;;
20012;SDS011;10167;42.852;23.042;2022-07-18T12:50:38;3.17;;;1.20;;
20012;SDS011;10167;42.852;23.042;2022-07-18T12:53:06;1.55;;;1.42;;
20012;SDS011;10167;42.852;23.042;2022-07-18T12:55:35;1.95;;;1.40;;
20012;SDS011;10167;42.852;23.042;2022-07-18T13:02:53;1.50;;;1.30;;
20012;SDS011;10167;42.852;23.042;2022-07-18T13:05:22;1.70;;;1.25;;
20012;SDS011;10167;42.852;23.042;2022-07-18T13:07:50;6.13;;;1.65;;
20012;SDS011;10167;42.852;23.042;2022-07-18T13:10:17;2.13;;;1.20;;
20012;SDS011;10167;42.852;23.042;2022-07-18T13:12:45;1.60;;;1.35;;
20012;SDS011;10167;42.852;23.042;2022-07-18T13:15:12;2.42;;;1.60;;
20012;SDS011;10167;42.852;23.042;2022-07-18T13:17:40;3.63;;;1.90;;
20012;SDS011;10167;42.852;23.042;2022-07-18T13:25:12;2.92;;;1.80;;
20012;SDS011;10167;42.852;23.042;2022-07-18T13:27:40;4.53;;;1.48;;
20012;SDS011;10167;42.852;23.042;2022-07-18T13:30:08;1.73;;;1.33;;
20012;SDS011;10167;42.852;23.042;2022-07-18T13:32:36;2.90;;;1.70;;
20012;SDS011;10167;42.852;23.042;2022-07-18T13:35:04;4.30;;;1.52;;
20012;SDS011;10167;42.852;23.042;2022-07-18T13:37:33;2.55;;;1.38;;
20012;SDS011;10167;42.852;23.042;2022-07-18T13:40:00;2.95;;;1.65;;
20012;SDS011;10167;42.852;23.042;2022-07-18T13:47:32;2.00;;;1.50;;
20012;SDS011;10167;42.852;23.042;2022-07-18T13:49:59;2.17;;;1.58;;
20012;SDS011;10167;42.852;23.042;2022-07-18T13:52:29;3.45;;;2.17;;
20012;SDS011;10167;42.852;23.042;2022-07-18T13:54:57;2.30;;;1.75;;
20012;SDS011;10167;42.852;23.042;2022-07-18T13:57:25;2.15;;;1.65;;
20012;SDS011;10167;42.852;23.042;2022-07-18T13:59:52;1.30;;;1.20;;
20012;SDS011;10167;42.852;23.042;2022-07-18T14:02:20;1.55;;;1.35;;
20012;SDS011;10167;42.852;23.042;2022-07-18T14:09:52;3.25;;;1.70;;
20012;SDS011;10167;42.852;23.042;2022-07-18T14:12:21;3.38;;;1.50;;
20012;SDS011;10167;42.852;23.042;2022-07-18T14:14:48;2.65;;;1.30;;
20012;SDS011;10167;42.852;23.042;2022-07-18T14:17:16;5.18;;;1.42;;
20012;SDS011;10167;42.852;23.042;2022-07-18T14:19:43;1.55;;;1.20;;
20012;SDS011;10167;42.852;23.042;2022-07-18T14:22:11;4.93;;;1.40;;
20012;SDS011;10167;42.852;23.042;2022-07-18T14:24:39;1.80;;;1.50;;
20012;SDS011;10167;42.852;23.042;2022-07-18T14:32:10;3.97;;;1.65;;
20012;SDS011;10167;42.852;23.042;2022-07-18T14:34:38;1.55;;;1.30;;
20012;SDS011;10167;42.852;23.042;2022-07-18T14:37:05;1.60;;;1.35;;
20012;SDS011;10167;42.852;23.042;2022-07-18T14:39:35;1.65;;;1.30;;
20012;SDS011;10167;42.852;23.042;2022-07-18T14:42:03;2.55;;;1.55;;
20012;SDS011;10167;42.852;23.042;2022-07-18T14:44:31;5.88;;;1.40;;
20012;SDS011;10167;42.852;23.042;2022-07-18T14:46:59;2.40;;;1.48;;
20012;SDS011;10167;42.852;23.042;2022-07-18T14:54:31;1.95;;;1.40;;
20012;SDS011;10167;42.852;23.042;2022-07-18T14:56:59;1.40;;;1.30;;
20012;SDS011;10167;42.852;23.042;2022-07-18T14:59:30;6.65;;;1.60;;
20012;SDS011;10167;42.852;23.042;2022-07-18T15:01:59;1.48;;;1.35;;
20012;SDS011;10167;42.852;23.042;2022-07-18T15:04:32;1.63;;;1.40;;
20012;SDS011;10167;42.852;23.042;2022-07-18T15:07:00;4.05;;;1.38;;
20012;SDS011;10167;42.852;23.042;2022-07-18T15:09:28;3.25;;;1.75;;
20012;SDS011;10167;42.852;23.042;2022-07-18T15:16:59;1.73;;;1.42;;
20012;SDS011;10167;42.852;23.042;2022-07-18T15:19:27;3.38;;;2.15;;
20012;SDS011;10167;42.852;23.042;2022-07-18T15:21:55;2.83;;;1.30;;
20012;SDS011;10167;42.852;23.042;2022-07-18T15:24:23;3.00;;;1.60;;
20012;SDS011;10167;42.852;23.042;2022-07-18T15:26:50;1.33;;;1.05;;
20012;SDS011;10167;42.852;23.042;2022-07-18T15:29:18;2.10;;;1.45;;
20012;SDS011;10167;42.852;23.042;2022-07-18T15:31:46;2.88;;;1.58;;
20012;SDS011;10167;42.852;23.042;2022-07-18T15:39:25;2.00;;;1.33;;
20012;SDS011;10167;42.852;23.042;2022-07-18T15:41:53;1.88;;;1.42;;
20012;SDS011;10167;42.852;23.042;2022-07-18T15:44:21;1.90;;;1.35;;
20012;SDS011;10167;42.852;23.042;2022-07-18T15:46:49;1.55;;;1.42;;
20012;SDS011;10167;42.852;23.042;2022-07-18T15:49:16;3.42;;;1.20;;
20012;SDS011;10167;42.852;23.042;2022-07-18T15:51:44;4.13;;;1.25;;
20012;SDS011;10167;42.852;23.042;2022-07-18T15:54:14;3.45;;;1.30;;
20012;SDS011;10167;42.852;23.042;2022-07-18T16:01:13;2.28;;;1.45;;
20012;SDS011;10167;42.852;23.042;2022-07-18T16:03:41;2.38;;;1.38;;
20012;SDS011;10167;42.852;23.042;2022-07-18T16:06:08;1.25;;;1.13;;
20012;SDS011;10167;42.852;23.042;2022-07-18T16:08:36;4.95;;;1.52;;
20012;SDS011;10167;42.852;23.042;2022-07-18T16:11:03;1.55;;;1.35;;
20012;SDS011;10167;42.852;23.042;2022-07-18T16:13:31;2.72;;;1.30;;
20012;SDS011;10167;42.852;23.042;2022-07-18T16:15:59;3.13;;;1.05;;
20012;SDS011;10167;42.852;23.042;2022-07-18T16:22:54;4.13;;;1.55;;
20012;SDS011;10167;42.852;23.042;2022-07-18T16:25:23;3.28;;;1.83;;
20012;SDS011;10167;42.852;23.042;2022-07-18T16:27:51;1.83;;;1.45;;
20012;SDS011;10167;42.852;23.042;2022-07-18T16:30:18;2.30;;;1.45;;
20012;SDS011;10167;42.852;23.042;2022-07-18T16:32:46;2.42;;;1.60;;
20012;SDS011;10167;42.852;23.042;2022-07-18T16:35:14;1.60;;;1.27;;
20012;SDS011;10167;42.852;23.042;2022-07-18T16:37:42;1.27;;;1.17;;
20012;SDS011;10167;42.852;23.042;2022-07-18T16:45:13;2.72;;;1.35;;
20012;SDS011;10167;42.852;23.042;2022-07-18T16:47:42;1.85;;;1.30;;
20012;SDS011;10167;42.852;23.042;2022-07-18T16:50:17;2.05;;;1.63;;
20012;SDS011;10167;42.852;23.042;2022-07-18T16:52:45;2.53;;;1.35;;
20012;SDS011;10167;42.852;23.042;2022-07-18T16:55:13;2.55;;;1.75;;
20012;SDS011;10167;42.852;23.042;2022-07-18T16:57:42;4.20;;;1.40;;
20012;SDS011;10167;42.852;23.042;2022-07-18T17:00:10;2.08;;;1.20;;
20012;SDS011;10167;42.852;23.042;2022-07-18T17:07:37;2.63;;;1.40;;
20012;SDS011;10167;42.852;23.042;2022-07-18T17:10:08;1.30;;;1.20;;
20012;SDS011;10167;42.852;23.042;2022-07-18T17:12:36;1.40;;;1.30;;
20012;SDS011;10167;42.852;23.042;2022-07-18T17:15:05;4.18;;;1.92;;
20012;SDS011;10167;42.852;23.042;2022-07-18T17:17:34;3.38;;;1.40;;
20012;SDS011;10167;42.852;23.042;2022-07-18T17:20:02;1.33;;;1.23;;
20012;SDS011;10167;42.852;23.042;2022-07-18T17:22:31;5.78;;;1.23;;
20012;SDS011;10167;42.852;23.042;2022-07-18T17:30:04;1.17;;;1.08;;
20012;SDS011;10167;42.852;23.042;2022-07-18T17:32:33;2.75;;;1.10;;
20012;SDS011;10167;42.852;23.042;2022-07-18T17:35:03;3.95;;;1.45;;
20012;SDS011;10167;42.852;23.042;2022-07-18T17:37:38;1.23;;;1.13;;
20012;SDS011;10167;42.852;23.042;2022-07-18T17:40:09;2.03;;;1.67;;
20012;SDS011;10167;42.852;23.042;2022-07-18T17:42:37;3.15;;;1.35;;
20012;SDS011;10167;42.852;23.042;2022-07-18T17:45:07;1.13;;;1.02;;
20012;SDS011;10167;42.852;23.042;2022-07-18T17:48:00;2.65;;;1.40;;
20012;SDS011;10167;42.852;23.042;2022-07-18T17:50:28;2.35;;;1.30;;
20012;SDS011;10167;42.852;23.042;2022-07-18T17:52:56;2.50;;;1.60;;
20012;SDS011;10167;42.852;23.042;2022-07-18T17:55:25;1.75;;;1.40;;
20012;SDS011;10167;42.852;23.042;2022-07-18T17:57:52;3.65;;;1.60;;
20012;SDS011;10167;42.852;23.042;2022-07-18T18:00:20;2.78;;;1.30;;
20012;SDS011;10167;42.852;23.042;2022-07-18T18:02:48;1.30;;;1.20;;
20012;SDS011;10167;42.852;23.042;2022-07-18T18:10:11;3.20;;;1.60;;
20012;SDS011;10167;42.852;23.042;2022-07-18T18:12:39;3.08;;;1.70;;
20012;SDS011;10167;42.852;23.042;2022-07-18T18:15:08;1.35;;;1.20;;
20012;SDS011;10167;42.852;23.042;2022-07-18T18:17:36;2.42;;;1.67;;
20012;SDS011;10167;42.852;23.042;2022-07-18T18:20:04;2.45;;;1.50;;
20012;SDS011;10167;42.852;23.042;2022-07-18T18:22:33;3.05;;;1.70;;
20012;SDS011;10167;42.852;23.042;2022-07-18T18:25:01;2.22;;;1.52;;
20012;SDS011;10167;42.852;23.042;2022-07-18T18:31:53;1.42;;;1.13;;
20012;SDS011;10167;42.852;23.042;2022-07-18T18:34:21;2.28;;;1.27;;
20012;SDS011;10167;42.852;23.042;2022-07-18T18:36:49;1.60;;;1.48;;
20012;SDS011;10167;42.852;23.042;2022-07-18T18:39:25;2.10;;;1.23;;
20012;SDS011;10167;42.852;23.042;2022-07-18T18:41:54;2.53;;;1.58;;
20012;SDS011;10167;42.852;23.042;2022-07-18T18:44:23;1.42;;;1.10;;